sensor_id;sensor_type;location;lat;lon;timestamp;P1;durP1;ratioP1;P2;durP2;ratioP2
73150;SDS011;61354;50.758;6.106;2022-09-03T00:01:15;2.75;;;1.25;;
73150;SDS011;61354;50.758;6.106;2022-09-03T00:03:54;1.77;;;1.20;;
73150;SDS011;61354;50.758;6.106;2022-09-03T00:09:26;2.30;;;1.30;;
73150;SDS011;61354;50.758;6.106;2022-09-03T00:12:04;2.17;;;1.38;;
73150;SDS011;61354;50.758;6.106;2022-09-03T00:14:35;2.33;;;1.20;;
73150;SDS011;61354;50.758;6.106;2022-09-03T00:17:13;2.45;;;1.25;;
73150;SDS011;61354;50.758;6.106;2022-09-03T00:19:52;1.80;;;1.20;;
73150;SDS011;61354;50.758;6.106;2022-09-03T00:22:26;3.13;;;1.40;;
73150;SDS011;61354;50.758;6.106;2022-09-03T00:25:06;4.13;;;1.20;;
73150;SDS011;61354;50.758;6.106;2022-09-03T00:27:37;1.95;;;1.20;;
73150;SDS011;61354;50.758;6.106;2022-09-03T00:32:53;2.30;;;1.15;;
73150;SDS011;61354;50.758;6.106;2022-09-03T00:35:28;1.40;;;1.27;;
73150;SDS011;61354;50.758;6.106;2022-09-03T00:37:56;2.35;;;1.35;;
73150;SDS011;61354;50.758;6.106;2022-09-03T00:40:32;4.30;;;1.50;;
73150;SDS011;61354;50.758;6.106;2022-09-03T00:45:59;2.78;;;1.23;;
73150;SDS011;61354;50.758;6.106;2022-09-03T00:51:43;2.75;;;1.42;;
73150;SDS011;61354;50.758;6.106;2022-09-03T00:57:33;1.85;;;1.30;;
73150;SDS011;61354;50.758;6.106;2022-09-03T01:00:15;2.22;;;1.20;;
73150;SDS011;61354;50.758;6.106;2022-09-03T01:16:32;3.58;;;1.38;;
73150;SDS011;61354;50.758;6.106;2022-09-03T01:19:25;2.17;;;1.33;;
73150;SDS011;61354;50.758;6.106;2022-09-03T01:40:02;2.60;;;1.40;;
73150;SDS011;61354;50.758;6.106;2022-09-03T01:42:51;1.45;;;1.25;;
73150;SDS011;61354;50.758;6.106;2022-09-03T01:50:52;1.75;;;1.20;;
73150;SDS011;61354;50.758;6.106;2022-09-03T01:58:43;2.78;;;1.30;;
73150;SDS011;61354;50.758;6.106;2022-09-03T02:01:19;2.30;;;1.17;;
73150;SDS011;61354;50.758;6.106;2022-09-03T02:03:50;2.03;;;1.27;;
73150;SDS011;61354;50.758;6.106;2022-09-03T02:06:16;2.53;;;1.27;;
73150;SDS011;61354;50.758;6.106;2022-09-03T02:08:43;1.40;;;1.15;;
73150;SDS011;61354;50.758;6.106;2022-09-03T02:11:08;2.00;;;1.23;;
73150;SDS011;61354;50.758;6.106;2022-09-03T02:13:35;2.83;;;1.40;;
73150;SDS011;61354;50.758;6.106;2022-09-03T02:16:14;2.15;;;1.20;;
73150;SDS011;61354;50.758;6.106;2022-09-03T02:18:51;2.15;;;1.30;;
73150;SDS011;61354;50.758;6.106;2022-09-03T02:21:21;2.78;;;1.48;;
73150;SDS011;61354;50.758;6.106;2022-09-03T02:23:48;2.55;;;1.23;;
73150;SDS011;61354;50.758;6.106;2022-09-03T02:26:15;3.38;;;1.25;;
73150;SDS011;61354;50.758;6.106;2022-09-03T02:28:45;2.30;;;1.42;;
73150;SDS011;61354;50.758;6.106;2022-09-03T02:31:11;2.10;;;1.35;;
73150;SDS011;61354;50.758;6.106;2022-09-03T02:33:37;1.92;;;1.30;;
73150;SDS011;61354;50.758;6.106;2022-09-03T02:36:06;2.65;;;1.40;;
73150;SDS011;61354;50.758;6.106;2022-09-03T02:38:34;1.55;;;1.20;;
73150;SDS011;61354;50.758;6.106;2022-09-03T02:41:00;2.38;;;1.33;;
73150;SDS011;61354;50.758;6.106;2022-09-03T02:43:30;3.28;;;1.50;;
73150;SDS011;61354;50.758;6.106;2022-09-03T02:46:04;3.58;;;1.70;;
73150;SDS011;61354;50.758;6.106;2022-09-03T02:48:33;2.50;;;1.50;;
73150;SDS011;61354;50.758;6.106;2022-09-03T02:50:59;2.80;;;1.50;;
73150;SDS011;61354;50.758;6.106;2022-09-03T02:53:24;2.83;;;1.40;;
73150;SDS011;61354;50.758;6.106;2022-09-03T02:55:52;4.78;;;1.80;;
73150;SDS011;61354;50.758;6.106;2022-09-03T02:58:22;2.47;;;1.60;;
73150;SDS011;61354;50.758;6.106;2022-09-03T03:00:47;3.15;;;1.85;;
73150;SDS011;61354;50.758;6.106;2022-09-03T03:03:13;2.53;;;1.70;;
73150;SDS011;61354;50.758;6.106;2022-09-03T03:08:15;3.42;;;1.70;;
73150;SDS011;61354;50.758;6.106;2022-09-03T03:10:45;3.40;;;1.80;;
73150;SDS011;61354;50.758;6.106;2022-09-03T03:13:12;3.50;;;1.70;;
73150;SDS011;61354;50.758;6.106;2022-09-03T03:15:38;3.95;;;1.88;;
73150;SDS011;61354;50.758;6.106;2022-09-03T03:18:04;2.95;;;1.70;;
73150;SDS011;61354;50.758;6.106;2022-09-03T03:20:31;4.22;;;1.70;;
73150;SDS011;61354;50.758;6.106;2022-09-03T03:23:00;2.63;;;1.60;;
73150;SDS011;61354;50.758;6.106;2022-09-03T03:59:10;2.45;;;1.48;;
73150;SDS011;61354;50.758;6.106;2022-09-03T04:01:45;3.20;;;1.63;;
73150;SDS011;61354;50.758;6.106;2022-09-03T04:04:10;2.58;;;1.60;;
73150;SDS011;61354;50.758;6.106;2022-09-03T04:06:45;2.42;;;1.20;;
73150;SDS011;61354;50.758;6.106;2022-09-03T04:12:11;3.17;;;1.80;;
73150;SDS011;61354;50.758;6.106;2022-09-03T04:14:36;3.08;;;1.60;;
73150;SDS011;61354;50.758;6.106;2022-09-03T04:17:02;2.92;;;1.52;;
73150;SDS011;61354;50.758;6.106;2022-09-03T04:19:28;2.35;;;1.50;;
73150;SDS011;61354;50.758;6.106;2022-09-03T04:21:54;2.25;;;1.40;;
73150;SDS011;61354;50.758;6.106;2022-09-03T04:27:10;2.67;;;1.65;;
73150;SDS011;61354;50.758;6.106;2022-09-03T04:29:36;2.60;;;1.73;;
73150;SDS011;61354;50.758;6.106;2022-09-03T04:32:01;2.55;;;1.48;;
73150;SDS011;61354;50.758;6.106;2022-09-03T04:34:46;4.38;;;1.92;;
73150;SDS011;61354;50.758;6.106;2022-09-03T04:37:11;3.15;;;1.60;;
73150;SDS011;61354;50.758;6.106;2022-09-03T04:39:37;2.75;;;1.60;;
73150;SDS011;61354;50.758;6.106;2022-09-03T04:42:02;3.90;;;1.80;;
73150;SDS011;61354;50.758;6.106;2022-09-03T04:44:28;3.03;;;1.60;;
73150;SDS011;61354;50.758;6.106;2022-09-03T04:46:53;3.20;;;1.77;;
73150;SDS011;61354;50.758;6.106;2022-09-03T04:49:18;3.83;;;1.70;;
73150;SDS011;61354;50.758;6.106;2022-09-03T04:51:44;2.80;;;1.60;;
73150;SDS011;61354;50.758;6.106;2022-09-03T04:54:10;3.53;;;1.77;;
73150;SDS011;61354;50.758;6.106;2022-09-03T04:56:45;2.10;;;1.60;;
73150;SDS011;61354;50.758;6.106;2022-09-03T04:59:10;2.53;;;1.70;;
73150;SDS011;61354;50.758;6.106;2022-09-03T05:01:45;3.65;;;1.55;;
73150;SDS011;61354;50.758;6.106;2022-09-03T05:04:10;2.83;;;1.70;;
73150;SDS011;61354;50.758;6.106;2022-09-03T05:06:36;3.60;;;1.80;;
73150;SDS011;61354;50.758;6.106;2022-09-03T05:09:02;4.15;;;1.58;;
73150;SDS011;61354;50.758;6.106;2022-09-03T05:11:28;3.10;;;1.67;;
73150;SDS011;61354;50.758;6.106;2022-09-03T05:13:55;3.22;;;1.55;;
73150;SDS011;61354;50.758;6.106;2022-09-03T05:18:50;2.47;;;1.70;;
73150;SDS011;61354;50.758;6.106;2022-09-03T05:21:18;3.90;;;1.58;;
73150;SDS011;61354;50.758;6.106;2022-09-03T05:23:45;2.92;;;1.70;;
73150;SDS011;61354;50.758;6.106;2022-09-03T05:26:12;3.17;;;1.88;;
73150;SDS011;61354;50.758;6.106;2022-09-03T05:28:40;5.63;;;2.00;;
73150;SDS011;61354;50.758;6.106;2022-09-03T05:33:37;4.55;;;1.83;;
73150;SDS011;61354;50.758;6.106;2022-09-03T05:36:07;2.97;;;1.83;;
73150;SDS011;61354;50.758;6.106;2022-09-03T05:38:34;4.78;;;2.00;;
73150;SDS011;61354;50.758;6.106;2022-09-03T05:41:09;3.55;;;1.88;;
73150;SDS011;61354;50.758;6.106;2022-09-03T05:43:37;3.47;;;1.70;;
73150;SDS011;61354;50.758;6.106;2022-09-03T05:46:07;2.75;;;1.60;;
73150;SDS011;61354;50.758;6.106;2022-09-03T05:48:37;3.55;;;1.83;;
73150;SDS011;61354;50.758;6.106;2022-09-03T05:51:08;2.22;;;1.45;;
73150;SDS011;61354;50.758;6.106;2022-09-03T05:53:36;2.42;;;1.50;;
73150;SDS011;61354;50.758;6.106;2022-09-03T05:56:04;3.20;;;1.60;;
73150;SDS011;61354;50.758;6.106;2022-09-03T05:58:38;4.28;;;1.70;;
73150;SDS011;61354;50.758;6.106;2022-09-03T06:03:44;4.50;;;2.10;;
73150;SDS011;61354;50.758;6.106;2022-09-03T06:06:12;2.63;;;1.65;;
73150;SDS011;61354;50.758;6.106;2022-09-03T06:08:38;3.60;;;1.70;;
73150;SDS011;61354;50.758;6.106;2022-09-03T06:11:04;3.05;;;1.80;;
73150;SDS011;61354;50.758;6.106;2022-09-03T06:13:30;3.90;;;1.77;;
73150;SDS011;61354;50.758;6.106;2022-09-03T06:16:02;2.50;;;1.67;;
73150;SDS011;61354;50.758;6.106;2022-09-03T06:18:29;2.95;;;1.70;;
73150;SDS011;61354;50.758;6.106;2022-09-03T06:20:56;3.50;;;1.70;;
73150;SDS011;61354;50.758;6.106;2022-09-03T06:23:23;5.22;;;1.90;;
73150;SDS011;61354;50.758;6.106;2022-09-03T06:25:59;6.43;;;1.90;;
73150;SDS011;61354;50.758;6.106;2022-09-03T06:28:39;2.72;;;1.70;;
73150;SDS011;61354;50.758;6.106;2022-09-03T06:31:08;3.80;;;2.00;;
73150;SDS011;61354;50.758;6.106;2022-09-03T06:33:36;3.17;;;1.80;;
73150;SDS011;61354;50.758;6.106;2022-09-03T06:36:03;3.53;;;1.90;;
73150;SDS011;61354;50.758;6.106;2022-09-03T06:38:32;4.30;;;1.70;;
73150;SDS011;61354;50.758;6.106;2022-09-03T06:41:05;5.15;;;1.80;;
73150;SDS011;61354;50.758;6.106;2022-09-03T06:43:36;2.70;;;1.48;;
73150;SDS011;61354;50.758;6.106;2022-09-03T06:46:04;2.70;;;1.67;;
73150;SDS011;61354;50.758;6.106;2022-09-03T06:48:34;2.47;;;1.83;;
73150;SDS011;61354;50.758;6.106;2022-09-03T06:51:08;3.30;;;1.70;;
73150;SDS011;61354;50.758;6.106;2022-09-03T06:56:02;3.58;;;1.60;;
73150;SDS011;61354;50.758;6.106;2022-09-03T06:58:33;3.65;;;1.63;;
73150;SDS011;61354;50.758;6.106;2022-09-03T07:01:08;3.03;;;1.63;;
73150;SDS011;61354;50.758;6.106;2022-09-03T07:03:36;3.80;;;1.92;;
73150;SDS011;61354;50.758;6.106;2022-09-03T07:06:06;3.67;;;1.88;;
73150;SDS011;61354;50.758;6.106;2022-09-03T07:08:34;4.05;;;2.13;;
73150;SDS011;61354;50.758;6.106;2022-09-03T07:11:00;6.15;;;2.58;;
73150;SDS011;61354;50.758;6.106;2022-09-03T07:13:31;4.65;;;2.13;;
73150;SDS011;61354;50.758;6.106;2022-09-03T07:16:01;4.47;;;1.80;;
73150;SDS011;61354;50.758;6.106;2022-09-03T07:18:29;4.43;;;1.70;;
73150;SDS011;61354;50.758;6.106;2022-09-03T07:21:03;3.10;;;1.92;;
73150;SDS011;61354;50.758;6.106;2022-09-03T07:23:31;5.90;;;2.53;;
73150;SDS011;61354;50.758;6.106;2022-09-03T07:26:01;4.15;;;2.00;;
73150;SDS011;61354;50.758;6.106;2022-09-03T07:28:31;4.70;;;2.00;;
73150;SDS011;61354;50.758;6.106;2022-09-03T07:31:03;3.72;;;1.95;;
73150;SDS011;61354;50.758;6.106;2022-09-03T07:33:31;4.75;;;2.35;;
73150;SDS011;61354;50.758;6.106;2022-09-03T07:36:05;3.83;;;2.03;;
73150;SDS011;61354;50.758;6.106;2022-09-03T07:38:40;4.38;;;2.10;;
73150;SDS011;61354;50.758;6.106;2022-09-03T07:54:10;2.78;;;1.80;;
73150;SDS011;61354;50.758;6.106;2022-09-03T07:56:45;3.30;;;1.95;;
73150;SDS011;61354;50.758;6.106;2022-09-03T07:59:10;2.60;;;1.70;;
73150;SDS011;61354;50.758;6.106;2022-09-03T08:01:45;3.75;;;1.92;;
73150;SDS011;61354;50.758;6.106;2022-09-03T08:04:10;2.95;;;1.77;;
73150;SDS011;61354;50.758;6.106;2022-09-03T08:06:45;2.60;;;1.80;;
73150;SDS011;61354;50.758;6.106;2022-09-03T08:09:11;3.65;;;1.90;;
73150;SDS011;61354;50.758;6.106;2022-09-03T08:11:38;4.45;;;1.90;;
73150;SDS011;61354;50.758;6.106;2022-09-03T08:14:10;3.60;;;2.00;;
73150;SDS011;61354;50.758;6.106;2022-09-03T08:16:38;4.10;;;1.90;;
73150;SDS011;61354;50.758;6.106;2022-09-03T08:19:15;3.33;;;2.25;;
73150;SDS011;61354;50.758;6.106;2022-09-03T08:21:45;3.22;;;1.92;;
73150;SDS011;61354;50.758;6.106;2022-09-03T08:24:11;4.10;;;2.22;;
73150;SDS011;61354;50.758;6.106;2022-09-03T08:26:37;3.33;;;2.00;;
73150;SDS011;61354;50.758;6.106;2022-09-03T08:32:10;6.10;;;2.45;;
73150;SDS011;61354;50.758;6.106;2022-09-03T08:34:39;3.85;;;2.17;;
73150;SDS011;61354;50.758;6.106;2022-09-03T08:37:04;4.78;;;2.13;;
73150;SDS011;61354;50.758;6.106;2022-09-03T08:39:30;4.88;;;2.28;;
73150;SDS011;61354;50.758;6.106;2022-09-03T08:45:12;4.50;;;2.53;;
73150;SDS011;61354;50.758;6.106;2022-09-03T08:47:45;39.83;;;4.65;;
73150;SDS011;61354;50.758;6.106;2022-09-03T08:50:25;5.07;;;2.40;;
73150;SDS011;61354;50.758;6.106;2022-09-03T08:56:07;5.25;;;2.25;;
73150;SDS011;61354;50.758;6.106;2022-09-03T08:58:35;3.85;;;2.50;;
73150;SDS011;61354;50.758;6.106;2022-09-03T09:23:09;3.78;;;2.30;;
73150;SDS011;61354;50.758;6.106;2022-09-03T09:25:48;3.97;;;2.58;;
73150;SDS011;61354;50.758;6.106;2022-09-03T09:38:10;3.47;;;2.22;;
73150;SDS011;61354;50.758;6.106;2022-09-03T09:44:18;3.97;;;2.50;;
73150;SDS011;61354;50.758;6.106;2022-09-03T09:46:45;4.38;;;2.50;;
73150;SDS011;61354;50.758;6.106;2022-09-03T09:49:51;3.20;;;2.50;;
73150;SDS011;61354;50.758;6.106;2022-09-03T09:52:15;4.88;;;2.60;;
73150;SDS011;61354;50.758;6.106;2022-09-03T09:54:42;4.15;;;2.38;;
73150;SDS011;61354;50.758;6.106;2022-09-03T09:57:13;3.35;;;2.33;;
73150;SDS011;61354;50.758;6.106;2022-09-03T09:59:44;3.40;;;2.25;;
73150;SDS011;61354;50.758;6.106;2022-09-03T10:04:43;3.60;;;2.03;;
73150;SDS011;61354;50.758;6.106;2022-09-03T10:07:21;3.45;;;2.30;;
73150;SDS011;61354;50.758;6.106;2022-09-03T10:52:00;3.95;;;2.67;;
73150;SDS011;61354;50.758;6.106;2022-09-03T11:05:12;5.75;;;3.03;;
73150;SDS011;61354;50.758;6.106;2022-09-03T11:07:44;5.40;;;2.70;;
73150;SDS011;61354;50.758;6.106;2022-09-03T11:13:00;4.25;;;2.80;;
73150;SDS011;61354;50.758;6.106;2022-09-03T11:15:52;3.97;;;2.85;;
73150;SDS011;61354;50.758;6.106;2022-09-03T11:21:13;3.20;;;2.30;;
73150;SDS011;61354;50.758;6.106;2022-09-03T11:24:19;3.85;;;2.70;;
73150;SDS011;61354;50.758;6.106;2022-09-03T11:27:00;3.45;;;2.42;;
73150;SDS011;61354;50.758;6.106;2022-09-03T11:29:33;4.50;;;2.47;;
73150;SDS011;61354;50.758;6.106;2022-09-03T11:32:12;3.20;;;2.40;;
73150;SDS011;61354;50.758;6.106;2022-09-03T11:34:51;4.18;;;2.15;;
73150;SDS011;61354;50.758;6.106;2022-09-03T11:37:20;3.45;;;2.40;;
73150;SDS011;61354;50.758;6.106;2022-09-03T11:42:45;3.85;;;2.40;;
73150;SDS011;61354;50.758;6.106;2022-09-03T11:47:49;4.22;;;2.45;;
73150;SDS011;61354;50.758;6.106;2022-09-03T11:50:23;4.15;;;2.40;;
73150;SDS011;61354;50.758;6.106;2022-09-03T12:05:41;4.47;;;2.55;;
73150;SDS011;61354;50.758;6.106;2022-09-03T12:16:43;3.58;;;2.30;;
73150;SDS011;61354;50.758;6.106;2022-09-03T12:18:50;4.82;;;3.00;;
73150;SDS011;61354;50.758;6.106;2022-09-03T12:21:21;3.47;;;2.38;;
73150;SDS011;61354;50.758;6.106;2022-09-03T12:23:47;3.40;;;2.55;;
73150;SDS011;61354;50.758;6.106;2022-09-03T12:47:09;3.65;;;2.75;;
73150;SDS011;61354;50.758;6.106;2022-09-03T12:49:46;4.50;;;2.80;;
73150;SDS011;61354;50.758;6.106;2022-09-03T13:04:12;4.28;;;2.47;;
73150;SDS011;61354;50.758;6.106;2022-09-03T13:09:24;4.07;;;2.50;;
73150;SDS011;61354;50.758;6.106;2022-09-03T13:11:54;3.65;;;2.90;;
73150;SDS011;61354;50.758;6.106;2022-09-03T13:14:20;3.78;;;2.50;;
73150;SDS011;61354;50.758;6.106;2022-09-03T13:24:38;4.07;;;2.60;;
73150;SDS011;61354;50.758;6.106;2022-09-03T13:35:33;3.60;;;2.60;;
73150;SDS011;61354;50.758;6.106;2022-09-03T13:40:48;3.92;;;2.75;;
73150;SDS011;61354;50.758;6.106;2022-09-03T14:04:28;3.70;;;2.88;;
73150;SDS011;61354;50.758;6.106;2022-09-03T14:07:24;3.83;;;2.72;;
73150;SDS011;61354;50.758;6.106;2022-09-03T14:15:50;5.07;;;3.13;;
73150;SDS011;61354;50.758;6.106;2022-09-03T14:26:25;3.40;;;2.40;;
73150;SDS011;61354;50.758;6.106;2022-09-03T14:28:58;4.68;;;2.60;;
73150;SDS011;61354;50.758;6.106;2022-09-03T14:36:54;5.53;;;2.78;;
73150;SDS011;61354;50.758;6.106;2022-09-03T14:48:12;3.78;;;2.38;;
73150;SDS011;61354;50.758;6.106;2022-09-03T14:57:06;3.40;;;2.03;;
73150;SDS011;61354;50.758;6.106;2022-09-03T15:03:22;3.75;;;2.22;;
73150;SDS011;61354;50.758;6.106;2022-09-03T15:05:41;4.68;;;2.53;;
73150;SDS011;61354;50.758;6.106;2022-09-03T15:08:09;4.88;;;2.60;;
73150;SDS011;61354;50.758;6.106;2022-09-03T15:11:19;3.72;;;2.33;;
73150;SDS011;61354;50.758;6.106;2022-09-03T15:13:52;2.90;;;2.13;;
73150;SDS011;61354;50.758;6.106;2022-09-03T15:30:49;3.63;;;2.60;;
73150;SDS011;61354;50.758;6.106;2022-09-03T15:36:12;3.53;;;2.78;;
73150;SDS011;61354;50.758;6.106;2022-09-03T15:39:14;5.25;;;2.90;;
73150;SDS011;61354;50.758;6.106;2022-09-03T15:41:52;4.72;;;2.85;;
73150;SDS011;61354;50.758;6.106;2022-09-03T15:44:47;5.20;;;3.03;;
73150;SDS011;61354;50.758;6.106;2022-09-03T15:51:02;8.77;;;3.85;;
73150;SDS011;61354;50.758;6.106;2022-09-03T15:53:18;5.97;;;3.05;;
73150;SDS011;61354;50.758;6.106;2022-09-03T15:56:15;4.18;;;2.80;;
73150;SDS011;61354;50.758;6.106;2022-09-03T16:01:47;5.10;;;3.35;;
73150;SDS011;61354;50.758;6.106;2022-09-03T16:07:15;4.82;;;3.30;;
73150;SDS011;61354;50.758;6.106;2022-09-03T18:06:54;3.45;;;1.88;;
73150;SDS011;61354;50.758;6.106;2022-09-03T18:30:50;3.03;;;2.00;;
73150;SDS011;61354;50.758;6.106;2022-09-03T18:37:43;2.88;;;1.83;;
73150;SDS011;61354;50.758;6.106;2022-09-03T18:58:24;3.20;;;1.90;;
73150;SDS011;61354;50.758;6.106;2022-09-03T19:01:20;3.38;;;2.00;;
73150;SDS011;61354;50.758;6.106;2022-09-03T19:10:56;3.33;;;2.00;;
73150;SDS011;61354;50.758;6.106;2022-09-03T19:13:48;4.60;;;2.10;;
73150;SDS011;61354;50.758;6.106;2022-09-03T19:16:38;2.97;;;1.77;;
73150;SDS011;61354;50.758;6.106;2022-09-03T19:22:38;3.72;;;1.85;;
73150;SDS011;61354;50.758;6.106;2022-09-03T19:25:25;3.40;;;2.03;;
73150;SDS011;61354;50.758;6.106;2022-09-03T19:28:13;3.15;;;1.88;;
73150;SDS011;61354;50.758;6.106;2022-09-03T19:37:22;2.50;;;1.55;;
73150;SDS011;61354;50.758;6.106;2022-09-03T19:47:15;2.80;;;1.83;;
73150;SDS011;61354;50.758;6.106;2022-09-03T19:53:11;4.25;;;2.40;;
73150;SDS011;61354;50.758;6.106;2022-09-03T19:56:01;3.28;;;1.90;;
73150;SDS011;61354;50.758;6.106;2022-09-03T19:58:54;3.03;;;1.90;;
73150;SDS011;61354;50.758;6.106;2022-09-03T20:01:39;3.65;;;1.90;;
73150;SDS011;61354;50.758;6.106;2022-09-03T20:04:32;3.75;;;2.08;;
73150;SDS011;61354;50.758;6.106;2022-09-03T20:07:20;3.60;;;1.80;;
73150;SDS011;61354;50.758;6.106;2022-09-03T20:10:07;3.25;;;1.92;;
73150;SDS011;61354;50.758;6.106;2022-09-03T20:15:37;3.42;;;1.83;;
73150;SDS011;61354;50.758;6.106;2022-09-03T20:23:27;3.50;;;2.08;;
73150;SDS011;61354;50.758;6.106;2022-09-03T20:28:53;3.50;;;2.13;;
73150;SDS011;61354;50.758;6.106;2022-09-03T20:35:00;3.50;;;2.20;;
73150;SDS011;61354;50.758;6.106;2022-09-03T20:40:48;3.15;;;2.22;;
73150;SDS011;61354;50.758;6.106;2022-09-03T20:43:21;3.10;;;1.90;;
73150;SDS011;61354;50.758;6.106;2022-09-03T20:46:00;3.35;;;1.92;;
73150;SDS011;61354;50.758;6.106;2022-09-03T20:49:12;3.75;;;2.63;;
73150;SDS011;61354;50.758;6.106;2022-09-03T20:51:54;2.75;;;2.10;;
73150;SDS011;61354;50.758;6.106;2022-09-03T20:57:45;3.28;;;2.05;;
73150;SDS011;61354;50.758;6.106;2022-09-03T21:12:04;2.95;;;1.90;;
73150;SDS011;61354;50.758;6.106;2022-09-03T21:14:40;4.03;;;2.00;;
73150;SDS011;61354;50.758;6.106;2022-09-03T21:17:19;3.55;;;2.00;;
73150;SDS011;61354;50.758;6.106;2022-09-03T21:25:22;3.05;;;2.10;;
73150;SDS011;61354;50.758;6.106;2022-09-03T21:27:55;2.92;;;1.67;;
73150;SDS011;61354;50.758;6.106;2022-09-03T21:30:25;3.78;;;2.10;;
73150;SDS011;61354;50.758;6.106;2022-09-03T21:33:13;3.45;;;1.98;;
73150;SDS011;61354;50.758;6.106;2022-09-03T21:35:46;2.90;;;1.90;;
73150;SDS011;61354;50.758;6.106;2022-09-03T21:38:31;2.92;;;1.90;;
73150;SDS011;61354;50.758;6.106;2022-09-03T21:44:16;3.45;;;2.00;;
73150;SDS011;61354;50.758;6.106;2022-09-03T21:46:48;2.85;;;1.63;;
73150;SDS011;61354;50.758;6.106;2022-09-03T21:49:22;2.92;;;1.75;;
73150;SDS011;61354;50.758;6.106;2022-09-03T21:52:03;2.95;;;1.80;;
73150;SDS011;61354;50.758;6.106;2022-09-03T21:54:33;4.03;;;1.92;;
73150;SDS011;61354;50.758;6.106;2022-09-03T22:04:49;3.83;;;1.80;;
73150;SDS011;61354;50.758;6.106;2022-09-03T22:07:25;2.65;;;1.90;;
73150;SDS011;61354;50.758;6.106;2022-09-03T22:13:19;2.33;;;1.45;;
73150;SDS011;61354;50.758;6.106;2022-09-03T22:15:53;2.08;;;1.40;;
73150;SDS011;61354;50.758;6.106;2022-09-03T22:18:27;2.47;;;1.60;;
73150;SDS011;61354;50.758;6.106;2022-09-03T22:26:24;3.00;;;1.55;;
73150;SDS011;61354;50.758;6.106;2022-09-03T22:29:07;2.47;;;1.58;;
73150;SDS011;61354;50.758;6.106;2022-09-03T22:31:55;2.25;;;1.52;;
73150;SDS011;61354;50.758;6.106;2022-09-03T22:37:15;2.25;;;1.50;;
73150;SDS011;61354;50.758;6.106;2022-09-03T22:39:51;2.30;;;1.40;;
73150;SDS011;61354;50.758;6.106;2022-09-03T22:42:43;2.92;;;1.60;;
73150;SDS011;61354;50.758;6.106;2022-09-03T22:48:22;2.90;;;1.70;;
73150;SDS011;61354;50.758;6.106;2022-09-03T22:50:57;2.55;;;1.50;;
73150;SDS011;61354;50.758;6.106;2022-09-03T22:56:08;1.95;;;1.35;;
73150;SDS011;61354;50.758;6.106;2022-09-03T22:58:44;3.05;;;1.50;;
73150;SDS011;61354;50.758;6.106;2022-09-03T23:04:47;2.63;;;1.45;;
73150;SDS011;61354;50.758;6.106;2022-09-03T23:07:21;2.47;;;1.42;;
73150;SDS011;61354;50.758;6.106;2022-09-03T23:10:04;2.47;;;1.30;;
73150;SDS011;61354;50.758;6.106;2022-09-03T23:12:41;1.75;;;1.30;;
73150;SDS011;61354;50.758;6.106;2022-09-03T23:15:10;2.88;;;1.60;;
73150;SDS011;61354;50.758;6.106;2022-09-03T23:17:45;2.63;;;1.33;;
73150;SDS011;61354;50.758;6.106;2022-09-03T23:20:20;2.47;;;1.40;;
73150;SDS011;61354;50.758;6.106;2022-09-03T23:22:49;3.28;;;1.50;;
73150;SDS011;61354;50.758;6.106;2022-09-03T23:28:01;2.30;;;1.50;;
73150;SDS011;61354;50.758;6.106;2022-09-03T23:30:35;3.95;;;1.40;;
73150;SDS011;61354;50.758;6.106;2022-09-03T23:33:01;2.20;;;1.50;;
73150;SDS011;61354;50.758;6.106;2022-09-03T23:35:33;3.05;;;1.35;;
73150;SDS011;61354;50.758;6.106;2022-09-03T23:41:14;2.35;;;1.27;;
